Time;durP1;ratioP1;P1;durP2;ratioP2;P2;SDS_P1;SDS_P2;PMS_P1;PMS_P2;Temp;Humidity;BMP_temperature;BMP_pressure;BME280_temperature;BME280_humidity;BME280_pressure;Samples;Min_cycle;Max_cycle;Signal;HPM_P1;HPM_P2
2023/12/10 04:00:37;;;;;;;4.47;1.75;;;22.60;29.00;;;;;;6114264;22;45458;31
2023/12/10 04:03:04;;;;;;;3.78;1.60;;;22.60;29.00;;;;;;4883732;28;45296;-81
2023/12/10 04:05:30;;;;;;;6.45;1.75;;;22.60;29.10;;;;;;4853871;28;45630;-83
2023/12/10 04:07:56;;;;;;;4.68;1.88;;;22.60;29.10;;;;;;4902635;28;45598;-86
2023/12/10 04:10:22;;;;;;;4.90;1.50;;;22.60;29.10;;;;;;4857138;28;45200;-81
2023/12/10 04:12:47;;;;;;;5.25;1.65;;;22.60;29.10;;;;;;4870071;28;45278;-81
2023/12/10 04:15:13;;;;;;;5.28;2.20;;;22.60;29.10;;;;;;4862529;28;45539;-85
2023/12/10 04:17:39;;;;;;;4.80;1.90;;;22.60;29.10;;;;;;4903101;28;45775;-82
2023/12/10 04:20:10;;;;;;;5.25;2.20;;;22.60;29.10;;;;;;4888787;28;45312;-85
2023/12/10 04:22:36;;;;;;;4.20;1.88;;;22.60;29.10;;;;;;4888415;28;45181;-95
2023/12/10 04:25:25;;;;;;;5.82;1.98;;;22.60;29.10;;;;;;4891159;28;45502;-85
2023/12/10 04:27:50;;;;;;;5.50;2.00;;;22.50;29.10;;;;;;4870050;28;46520;-85
2023/12/10 04:30:19;;;;;;;5.33;1.90;;;22.50;29.10;;;;;;4867411;28;45242;-87
2023/12/10 04:32:46;;;;;;;6.00;2.05;;;22.50;29.10;;;;;;4899325;28;45545;-85
2023/12/10 04:35:14;;;;;;;5.63;2.00;;;22.50;29.20;;;;;;4899308;28;45518;-84
2023/12/10 04:37:41;;;;;;;5.97;2.17;;;22.50;29.20;;;;;;4884053;29;46501;-87
2023/12/10 04:40:08;;;;;;;6.40;2.20;;;22.50;29.20;;;;;;4883783;29;45477;-91
2023/12/10 04:42:33;;;;;;;4.72;1.83;;;22.50;29.20;;;;;;4885037;28;45411;-82
2023/12/10 04:44:59;;;;;;;5.90;2.50;;;22.50;29.20;;;;;;4887589;28;45279;-82
2023/12/10 04:47:25;;;;;;;5.30;2.33;;;22.50;29.20;;;;;;4884574;28;45742;-86
2023/12/10 04:49:51;;;;;;;6.55;2.20;;;22.50;29.30;;;;;;4887904;29;44790;-84
2023/12/10 04:52:18;;;;;;;5.57;2.25;;;22.50;29.30;;;;;;4896063;28;45262;-86
2023/12/10 04:54:43;;;;;;;6.72;2.38;;;22.50;29.30;;;;;;4902046;28;45694;-85
2023/12/10 04:57:10;;;;;;;7.05;2.28;;;22.50;29.30;;;;;;4886053;28;46377;-89
2023/12/10 04:59:36;;;;;;;6.38;2.30;;;22.50;29.30;;;;;;4901024;28;45518;-82
2023/12/10 05:02:02;;;;;;;6.50;2.28;;;22.40;29.30;;;;;;4851454;29;45434;-85
2023/12/10 05:04:28;;;;;;;5.70;2.17;;;22.40;29.30;;;;;;4847079;29;45966;-86
2023/12/10 05:06:54;;;;;;;5.88;2.42;;;22.40;29.40;;;;;;4877997;29;46365;-87
2023/12/10 05:09:20;;;;;;;6.63;2.60;;;22.40;29.40;;;;;;4881542;29;44684;-87
2023/12/10 05:11:46;;;;;;;5.87;2.10;;;22.40;29.40;;;;;;4879709;29;44943;-85
2023/12/10 05:14:12;;;;;;;7.18;2.40;;;22.40;29.40;;;;;;4885510;29;44760;-86
2023/12/10 05:16:38;;;;;;;5.05;2.03;;;22.40;29.40;;;;;;4863356;29;45934;-84
2023/12/10 05:19:04;;;;;;;5.50;2.20;;;22.30;29.40;;;;;;4879300;29;45350;-86
2023/12/10 05:21:30;;;;;;;6.45;2.53;;;22.30;29.50;;;;;;4883946;29;45344;-87
2023/12/10 05:23:56;;;;;;;6.45;2.42;;;22.30;29.50;;;;;;4848528;29;45249;-87
2023/12/10 05:26:22;;;;;;;5.75;2.08;;;22.30;29.50;;;;;;4863746;29;46423;-85
2023/12/10 05:28:48;;;;;;;5.10;2.10;;;22.30;29.50;;;;;;4868505;29;44781;-83
2023/12/10 05:31:14;;;;;;;6.70;2.20;;;22.30;29.60;;;;;;4863742;29;45228;-87
2023/12/10 05:33:40;;;;;;;7.22;2.40;;;22.30;29.60;;;;;;4868136;29;45246;-82
2023/12/10 05:36:06;;;;;;;5.53;2.27;;;22.30;29.60;;;;;;4871391;29;46596;-81
2023/12/10 05:38:32;;;;;;;5.38;2.10;;;22.30;29.60;;;;;;4869465;29;45469;-80
2023/12/10 05:40:57;;;;;;;4.87;2.00;;;22.30;29.60;;;;;;4886869;29;45486;-81
2023/12/10 05:43:23;;;;;;;6.20;2.03;;;22.30;29.70;;;;;;4890470;29;45234;-80
2023/12/10 05:45:49;;;;;;;6.10;2.27;;;22.30;29.70;;;;;;4869891;29;46326;-80
2023/12/10 05:48:15;;;;;;;5.38;1.90;;;22.30;29.70;;;;;;4892527;29;44721;-85
2023/12/10 05:50:41;;;;;;;5.70;1.87;;;22.20;29.70;;;;;;4867749;29;44815;-84
2023/12/10 05:53:07;;;;;;;5.38;2.30;;;22.20;29.70;;;;;;4856721;29;45419;-87
2023/12/10 05:55:32;;;;;;;4.57;2.10;;;22.20;29.70;;;;;;4869833;29;45399;-80
2023/12/10 05:57:58;;;;;;;4.78;2.05;;;22.20;29.70;;;;;;4866868;29;45237;-87
2023/12/10 06:00:23;;;;;;;4.40;2.03;;;22.20;29.70;;;;;;4862586;29;44734;-89
2023/12/10 06:02:51;;;;;;;4.50;2.03;;;22.20;29.70;;;;;;4864004;29;60568;-83
2023/12/10 06:05:17;;;;;;;4.10;1.73;;;22.20;29.70;;;;;;4868863;29;45284;-81
2023/12/10 06:07:43;;;;;;;5.10;1.70;;;22.30;29.80;;;;;;4874431;29;44803;-84
2023/12/10 06:10:09;;;;;;;4.43;1.90;;;22.20;29.70;;;;;;4868770;29;45246;-83
2023/12/10 06:12:34;;;;;;;4.22;1.75;;;22.20;29.80;;;;;;4873790;29;44849;-86
2023/12/10 06:15:00;;;;;;;6.17;2.20;;;22.20;29.80;;;;;;4871953;29;45502;-87
2023/12/10 06:17:26;;;;;;;5.40;1.97;;;22.20;29.80;;;;;;4868704;29;45459;-85
2023/12/10 06:19:53;;;;;;;4.10;1.73;;;22.20;29.80;;;;;;4872743;29;45237;-83
2023/12/10 06:22:22;;;;;;;5.30;1.90;;;22.20;29.80;;;;;;4877915;29;45398;-81
2023/12/10 06:24:50;;;;;;;3.50;1.50;;;22.20;29.80;;;;;;4848492;29;47070;-83
2023/12/10 06:27:16;;;;;;;5.18;1.73;;;22.20;29.80;;;;;;4864706;29;45160;-83
2023/12/10 06:29:42;;;;;;;5.47;1.70;;;22.20;29.90;;;;;;4881133;29;45321;-90
2023/12/10 06:32:08;;;;;;;4.47;1.70;;;22.20;29.90;;;;;;4844051;29;45253;-84
2023/12/10 06:34:34;;;;;;;3.88;1.70;;;22.10;29.90;;;;;;4877811;29;45486;-81
2023/12/10 06:37:02;;;;;;;3.92;1.70;;;22.10;29.90;;;;;;4860962;29;45279;-80
2023/12/10 06:39:28;;;;;;;3.78;1.70;;;22.20;29.90;;;;;;4873033;29;45477;-87
2023/12/10 06:41:53;;;;;;;4.43;1.73;;;22.20;29.90;;;;;;4847561;29;45583;-84
2023/12/10 06:44:21;;;;;;;3.67;1.50;;;22.10;29.90;;;;;;4866383;29;47329;-84
2023/12/10 06:46:51;;;;;;;3.33;1.40;;;22.10;29.90;;;;;;4877467;29;45218;-82
2023/12/10 06:49:17;;;;;;;4.65;1.63;;;22.10;29.90;;;;;;4848660;29;45264;-81
2023/12/10 06:51:43;;;;;;;4.07;1.60;;;22.10;29.90;;;;;;4863655;29;45072;-84
2023/12/10 06:54:10;;;;;;;2.80;1.37;;;22.10;29.90;;;;;;4881623;29;45419;-84
2023/12/10 06:56:40;;;;;;;3.85;1.52;;;22.10;29.90;;;;;;4866334;29;45056;-87
2023/12/10 06:59:10;;;;;;;4.30;1.63;;;22.10;30.00;;;;;;4854593;29;45192;-81
2023/12/10 07:01:37;;;;;;;3.97;1.50;;;22.10;30.00;;;;;;4878962;29;44855;-83
2023/12/10 07:04:05;;;;;;;3.60;1.50;;;22.10;30.00;;;;;;4852272;29;46300;-82
2023/12/10 07:06:31;;;;;;;4.78;1.50;;;22.10;30.00;;;;;;4865720;29;44828;-80
2023/12/10 07:08:57;;;;;;;4.18;1.60;;;22.10;30.50;;;;;;4851152;29;44719;-90
2023/12/10 07:11:23;;;;;;;4.45;1.42;;;22.00;30.00;;;;;;4844070;29;45742;-90
2023/12/10 07:13:49;;;;;;;4.63;1.73;;;22.00;30.00;;;;;;4876289;29;45587;-85
2023/12/10 07:16:15;;;;;;;3.78;1.52;;;22.00;30.00;;;;;;4858541;29;45004;-84
2023/12/10 07:18:43;;;;;;;3.33;1.25;;;22.00;30.00;;;;;;4858036;29;45364;-85
2023/12/10 07:21:09;;;;;;;2.55;1.10;;;22.00;30.00;;;;;;4881642;29;45892;-86
2023/12/10 07:23:36;;;;;;;3.75;1.30;;;22.00;30.00;;;;;;4881164;29;46118;-84
2023/12/10 07:26:11;;;;;;;4.25;1.58;;;22.00;30.00;;;;;;4865588;29;45237;-91
2023/12/10 07:28:38;;;;;;;3.57;1.37;;;22.00;30.00;;;;;;4868637;29;45489;-82
2023/12/10 07:31:04;;;;;;;3.70;1.37;;;22.00;30.00;;;;;;4877625;29;45599;-84
2023/12/10 07:33:30;;;;;;;4.85;1.60;;;22.00;30.00;;;;;;4879847;29;46365;-83
2023/12/10 07:35:57;;;;;;;4.38;1.38;;;22.00;30.00;;;;;;4857859;29;45483;-94
2023/12/10 07:38:23;;;;;;;2.85;1.30;;;22.00;30.00;;;;;;4851768;29;45467;-80
2023/12/10 07:40:49;;;;;;;3.93;1.47;;;22.00;30.10;;;;;;4849684;29;45409;-84
2023/12/10 07:43:15;;;;;;;3.80;1.40;;;22.00;30.10;;;;;;4884164;29;46901;-86
2023/12/10 07:45:41;;;;;;;3.28;1.40;;;22.00;30.10;;;;;;4877696;29;45209;-83
2023/12/10 07:48:09;;;;;;;3.20;1.35;;;22.00;30.10;;;;;;4864402;29;45451;-83
2023/12/10 07:50:35;;;;;;;4.68;1.67;;;21.90;30.10;;;;;;4864374;29;45193;-86
2023/12/10 07:53:02;;;;;;;4.03;1.42;;;21.90;30.20;;;;;;4864181;29;45259;-81
2023/12/10 07:55:28;;;;;;;2.60;1.40;;;21.90;30.20;;;;;;4866016;29;46289;-89
2023/12/10 07:57:55;;;;;;;3.67;1.50;;;21.90;30.20;;;;;;4868614;29;45177;-86
2023/12/10 08:00:21;;;;;;;4.35;1.80;;;21.90;30.30;;;;;;4879365;29;45294;-82
2023/12/10 08:02:47;;;;;;;3.23;1.43;;;21.90;30.20;;;;;;4895248;28;46359;-89
2023/12/10 08:05:13;;;;;;;4.18;1.65;;;21.90;30.30;;;;;;4894608;28;45389;-87
2023/12/10 08:07:40;;;;;;;4.07;1.60;;;21.90;30.30;;;;;;4896649;28;45342;-88
2023/12/10 08:10:06;;;;;;;4.20;1.65;;;21.90;30.30;;;;;;4882428;28;44765;-84
2023/12/10 08:12:32;;;;;;;5.03;1.90;;;21.90;30.30;;;;;;4871310;29;45591;-81
2023/12/10 08:14:58;;;;;;;4.63;1.90;;;21.90;30.40;;;;;;4886679;28;44924;-84
2023/12/10 08:17:24;;;;;;;4.95;1.75;;;21.90;30.40;;;;;;4867026;28;45119;-80
2023/12/10 08:19:50;;;;;;;4.28;1.70;;;21.90;30.40;;;;;;4888385;29;44847;-83
2023/12/10 08:22:16;;;;;;;5.53;1.92;;;21.90;30.40;;;;;;4881319;28;46112;-84
2023/12/10 08:24:43;;;;;;;4.90;1.85;;;21.90;30.50;;;;;;4885899;29;44848;-88
2023/12/10 08:27:09;;;;;;;5.00;2.00;;;21.90;30.50;;;;;;4884165;28;45413;-82
2023/12/10 08:29:34;;;;;;;5.80;1.90;;;21.80;30.40;;;;;;4885080;28;45522;-84
2023/12/10 08:32:01;;;;;;;4.72;1.88;;;21.80;30.40;;;;;;4895780;28;45204;-85
2023/12/10 08:34:28;;;;;;;6.00;2.10;;;21.80;30.50;;;;;;4883944;29;45273;-81
2023/12/10 08:36:54;;;;;;;5.40;2.03;;;21.80;30.50;;;;;;4867553;29;44883;-86
2023/12/10 08:39:21;;;;;;;5.55;2.00;;;21.80;30.50;;;;;;4900618;28;44811;-82
2023/12/10 08:41:47;;;;;;;5.87;2.07;;;21.80;30.50;;;;;;4883808;28;45401;-85
2023/12/10 08:44:14;;;;;;;4.87;2.00;;;21.80;30.60;;;;;;4882974;28;45490;-81
2023/12/10 08:46:40;;;;;;;4.40;1.77;;;21.80;30.60;;;;;;4895109;28;45533;-86
2023/12/10 08:49:06;;;;;;;5.43;2.03;;;21.80;30.60;;;;;;4884301;28;44910;-83
2023/12/10 08:51:32;;;;;;;5.50;1.88;;;21.80;30.60;;;;;;4869346;29;46132;-80
2023/12/10 08:54:01;;;;;;;5.90;2.00;;;21.70;30.60;;;;;;4899162;28;45278;-85
2023/12/10 08:56:26;;;;;;;4.43;2.00;;;21.70;30.60;;;;;;4881319;28;45324;-87
2023/12/10 08:58:53;;;;;;;6.85;2.10;;;21.70;30.70;;;;;;4870864;29;46413;-84
2023/12/10 09:01:20;;;;;;;5.55;1.90;;;21.70;30.70;;;;;;4878282;28;46183;-85
2023/12/10 09:03:46;;;;;;;5.47;2.03;;;21.70;30.60;;;;;;4866334;29;45323;-83
2023/12/10 09:06:12;;;;;;;4.65;2.00;;;21.70;30.60;;;;;;4899712;28;45335;-83
2023/12/10 09:08:38;;;;;;;6.70;1.98;;;21.70;30.70;;;;;;4900729;28;45065;-84
2023/12/10 09:11:05;;;;;;;4.17;2.00;;;21.70;30.70;;;;;;4868779;28;45762;-88
2023/12/10 09:13:31;;;;;;;6.40;2.00;;;21.70;30.70;;;;;;4897219;28;45303;-82
2023/12/10 09:15:58;;;;;;;5.45;2.08;;;21.70;30.70;;;;;;4894730;28;44953;-86
2023/12/10 09:18:25;;;;;;;4.68;1.95;;;21.70;30.70;;;;;;4866643;29;45326;-83
2023/12/10 09:20:51;;;;;;;6.05;2.13;;;21.70;30.80;;;;;;4881748;29;46344;-83
2023/12/10 09:23:18;;;;;;;6.10;2.40;;;21.70;30.80;;;;;;4882525;28;44879;-83
2023/12/10 09:25:44;;;;;;;5.18;1.95;;;21.70;30.80;;;;;;4902284;28;45854;-82
2023/12/10 09:28:10;;;;;;;5.68;2.10;;;21.70;30.80;;;;;;4887802;28;45410;-82
2023/12/10 09:30:36;;;;;;;5.97;2.22;;;21.70;30.80;;;;;;4881707;29;45980;-84
2023/12/10 09:33:02;;;;;;;6.25;2.22;;;21.70;30.90;;;;;;4888397;28;45590;-81
2023/12/10 09:35:28;;;;;;;5.57;2.20;;;21.60;30.90;;;;;;4893957;28;45376;-84
2023/12/10 09:37:55;;;;;;;5.88;2.17;;;21.70;30.90;;;;;;4888463;28;45577;-86
2023/12/10 09:40:21;;;;;;;6.63;2.42;;;21.70;30.90;;;;;;4884097;28;47473;-81
2023/12/10 09:42:47;;;;;;;5.75;2.40;;;21.60;30.90;;;;;;4892063;29;45250;-86
2023/12/10 09:45:16;;;;;;;5.83;2.47;;;21.60;30.90;;;;;;4878016;28;45314;-83
2023/12/10 09:47:43;;;;;;;8.07;2.30;;;21.60;31.00;;;;;;4901873;28;45069;-81
2023/12/10 09:50:13;;;;;;;5.07;2.20;;;21.60;31.00;;;;;;4882661;29;45901;-94
2023/12/10 09:52:38;;;;;;;6.97;2.10;;;21.60;31.00;;;;;;4886267;29;45229;-87
2023/12/10 09:55:06;;;;;;;8.13;2.57;;;21.60;31.00;;;;;;4888830;28;45329;-85
2023/12/10 09:57:32;;;;;;;5.57;2.27;;;21.60;31.00;;;;;;4885626;28;45811;-83
2023/12/10 09:59:59;;;;;;;5.70;2.28;;;21.60;31.00;;;;;;4887035;28;45570;-85
2023/12/10 10:02:35;;;;;;;4.45;2.10;;;21.60;31.00;;;;;;4882325;28;45195;-82
2023/12/10 10:05:07;;;;;;;5.53;2.20;;;21.60;31.00;;;;;;4894218;28;45225;-86
2023/12/10 10:07:33;;;;;;;5.33;2.03;;;21.60;31.10;;;;;;4870349;28;44746;-82
2023/12/10 10:10:00;;;;;;;4.88;2.35;;;21.60;31.00;;;;;;4876287;28;46098;-84
2023/12/10 10:12:29;;;;;;;5.72;2.42;;;21.60;31.10;;;;;;4880599;28;44632;-84
2023/12/10 10:14:56;;;;;;;6.13;2.10;;;21.60;31.20;;;;;;4896333;28;45074;-82
2023/12/10 10:17:29;;;;;;;5.93;2.10;;;21.60;31.20;;;;;;4859587;28;45611;-88
2023/12/10 10:19:55;;;;;;;4.82;1.88;;;21.50;31.20;;;;;;4880910;29;45298;-84
2023/12/10 10:22:25;;;;;;;5.03;2.00;;;21.50;31.20;;;;;;4883833;28;45058;-81
2023/12/10 10:24:52;;;;;;;6.05;2.08;;;21.50;31.20;;;;;;4894344;28;45364;-82
2023/12/10 10:27:18;;;;;;;5.37;2.00;;;21.50;31.30;;;;;;4859874;23;47391;-38
2023/12/10 10:29:44;;;;;;;5.03;2.13;;;21.50;31.30;;;;;;4866990;28;45555;-39
2023/12/10 10:32:15;;;;;;;6.33;2.30;;;21.50;31.30;;;;;;4858704;28;45913;-39
2023/12/10 10:34:50;;;;;;;5.70;2.03;;;21.50;31.40;;;;;;4895773;28;45207;-39
2023/12/10 10:37:16;;;;;;;5.90;2.40;;;21.40;31.40;;;;;;4870160;28;45756;-38
2023/12/10 10:39:45;;;;;;;5.25;1.77;;;21.40;32.10;;;;;;4890695;28;45561;-39
2023/12/10 10:42:11;;;;;;;5.30;2.20;;;21.40;31.50;;;;;;4883975;28;46309;-39
2023/12/10 10:44:39;;;;;;;5.07;2.00;;;21.40;31.50;;;;;;4890888;28;45435;-38
2023/12/10 10:47:08;;;;;;;5.22;1.85;;;21.40;31.60;;;;;;4872724;28;45417;-39
2023/12/10 10:50:00;;;;;;;6.93;2.25;;;21.50;31.60;;;;;;4888763;28;45349;-38
2023/12/10 10:52:31;;;;;;;5.63;2.08;;;21.40;31.60;;;;;;4877688;28;45487;-39
2023/12/10 10:54:56;;;;;;;4.97;1.80;;;21.40;31.60;;;;;;4893574;28;45224;-39
2023/12/10 10:57:35;;;;;;;5.80;1.83;;;21.40;31.60;;;;;;4873899;28;47543;-39
2023/12/10 11:00:16;;;;;;;5.53;2.10;;;21.40;31.60;;;;;;4894170;28;45972;-38
2023/12/10 11:02:42;;;;;;;5.10;2.13;;;21.40;31.70;;;;;;4883006;28;45404;-39
2023/12/10 11:05:07;;;;;;;5.63;2.00;;;21.40;31.70;;;;;;4885709;28;45115;-39
2023/12/10 11:07:33;;;;;;;5.85;1.88;;;21.30;31.70;;;;;;4866491;28;46133;-39
2023/12/10 11:10:07;;;;;;;3.30;1.80;;;21.40;31.80;;;;;;4892421;28;45224;-39
2023/12/10 11:12:45;;;;;;;5.70;2.13;;;21.30;31.70;;;;;;4879826;28;45262;-39
2023/12/10 11:15:13;;;;;;;5.10;2.00;;;21.40;31.80;;;;;;4878055;28;45417;-38
2023/12/10 11:17:56;;;;;;;5.22;1.80;;;21.30;31.70;;;;;;4880308;28;45719;-39
2023/12/10 11:20:48;;;;;;;5.05;1.80;;;21.40;31.80;;;;;;4880351;28;45735;-39
2023/12/10 11:23:14;;;;;;;3.97;1.73;;;21.30;31.80;;;;;;4888830;28;44798;-39
2023/12/10 11:25:40;;;;;;;4.17;1.90;;;21.30;31.80;;;;;;4882153;28;45654;-38
2023/12/10 11:28:14;;;;;;;4.90;1.92;;;21.30;31.80;;;;;;4907817;28;45549;-39
2023/12/10 11:30:41;;;;;;;4.93;1.90;;;21.30;31.80;;;;;;4863232;28;46850;-39
2023/12/10 11:33:06;;;;;;;6.10;1.70;;;21.30;31.90;;;;;;4893951;28;45176;-38
2023/12/10 11:35:32;;;;;;;5.33;1.80;;;21.30;31.90;;;;;;4894687;28;45823;-39
2023/12/10 11:37:58;;;;;;;5.13;2.00;;;21.30;31.90;;;;;;4894642;28;45366;-39
2023/12/10 11:40:24;;;;;;;7.03;2.13;;;21.30;31.80;;;;;;4903291;28;47212;-39
2023/12/10 11:42:49;;;;;;;5.45;2.00;;;21.30;31.80;;;;;;4915925;28;45211;-38
2023/12/10 11:45:15;;;;;;;3.73;1.70;;;21.30;31.90;;;;;;4884779;28;45431;-39
2023/12/10 11:47:42;;;;;;;5.32;1.77;;;21.30;31.90;;;;;;4903574;28;45841;-38
2023/12/10 11:50:09;;;;;;;4.33;1.63;;;21.30;31.90;;;;;;4892082;28;45302;-39
2023/12/10 11:52:34;;;;;;;4.10;1.80;;;21.30;31.90;;;;;;4890882;28;45363;-39
2023/12/10 11:55:00;;;;;;;4.93;1.73;;;21.30;31.90;;;;;;4912948;28;45428;-38
2023/12/10 11:57:26;;;;;;;5.00;1.90;;;21.30;31.90;;;;;;4866642;28;46599;-39
2023/12/10 11:59:51;;;;;;;5.38;1.90;;;21.30;31.90;;;;;;4919835;28;46180;-39
2023/12/10 12:02:17;;;;;;;4.68;1.90;;;21.30;31.90;;;;;;4876270;28;45334;-39
2023/12/10 12:04:43;;;;;;;4.07;1.45;;;21.30;31.90;;;;;;4906703;28;45223;-41
2023/12/10 12:07:27;;;;;;;4.22;1.83;;;21.30;31.90;;;;;;4904024;28;46229;-39
2023/12/10 12:09:53;;;;;;;5.18;1.70;;;21.30;31.90;;;;;;4909068;28;45986;-41
2023/12/10 12:12:21;;;;;;;3.53;1.53;;;21.30;31.90;;;;;;4900787;28;45640;-39
2023/12/10 12:14:47;;;;;;;4.77;1.70;;;21.30;31.90;;;;;;4910332;28;45404;-39
2023/12/10 12:17:13;;;;;;;4.32;1.67;;;21.30;31.90;;;;;;4890110;28;45350;-39
2023/12/10 12:19:39;;;;;;;4.03;1.60;;;21.30;32.00;;;;;;4912363;28;45937;-38
2023/12/10 12:22:05;;;;;;;4.93;1.80;;;21.30;32.00;;;;;;4903064;28;45401;-38
2023/12/10 12:24:30;;;;;;;5.70;1.70;;;21.30;32.00;;;;;;4911695;28;45611;-38
2023/12/10 12:26:56;;;;;;;3.20;1.50;;;21.30;32.00;;;;;;4871290;28;45370;-39
2023/12/10 12:29:22;;;;;;;4.00;1.43;;;21.30;32.00;;;;;;4909386;28;45051;-39
2023/12/10 12:31:47;;;;;;;3.42;1.38;;;21.30;32.00;;;;;;4866242;28;50033;-38
2023/12/10 12:34:13;;;;;;;4.73;1.70;;;21.30;32.00;;;;;;4908951;28;46106;-39
2023/12/10 12:36:39;;;;;;;5.63;2.07;;;21.30;32.00;;;;;;4879245;28;47285;-39
2023/12/10 12:39:04;;;;;;;3.80;1.50;;;21.30;32.00;;;;;;4890782;28;45297;-38
2023/12/10 12:41:30;;;;;;;4.43;1.70;;;21.30;32.10;;;;;;4900417;28;45198;-38
2023/12/10 12:43:56;;;;;;;3.67;1.42;;;21.30;32.10;;;;;;4918599;28;45681;-38
2023/12/10 12:46:22;;;;;;;4.30;1.60;;;21.30;32.00;;;;;;4874606;28;45259;-38
2023/12/10 12:48:48;;;;;;;4.45;1.60;;;21.30;32.10;;;;;;4887233;28;45883;-39
2023/12/10 12:51:14;;;;;;;5.45;1.60;;;21.30;32.00;;;;;;4896563;28;45506;-39
2023/12/10 12:53:39;;;;;;;3.83;1.70;;;21.30;32.00;;;;;;4882827;28;45783;-39
2023/12/10 12:56:06;;;;;;;3.80;1.63;;;21.30;32.10;;;;;;4884229;28;45271;-38
2023/12/10 12:58:32;;;;;;;3.87;1.43;;;21.30;32.10;;;;;;4890458;28;45552;-39
2023/12/10 13:00:59;;;;;;;4.90;1.70;;;21.30;32.10;;;;;;4879186;28;45713;-40
2023/12/10 13:03:24;;;;;;;4.82;1.80;;;21.30;32.10;;;;;;4855389;28;45516;-39
2023/12/10 13:05:50;;;;;;;6.47;1.90;;;21.30;32.10;;;;;;4886471;28;46622;-38
2023/12/10 13:08:15;;;;;;;4.97;1.80;;;21.30;32.10;;;;;;4895694;28;45230;-39
2023/12/10 13:10:41;;;;;;;4.37;1.40;;;21.30;32.10;;;;;;4883446;28;45663;-39
2023/12/10 13:13:07;;;;;;;4.40;1.70;;;21.30;32.20;;;;;;4902930;28;45487;-39
2023/12/10 13:15:32;;;;;;;4.80;1.70;;;21.30;32.20;;;;;;4881398;28;45186;-38
2023/12/10 13:17:58;;;;;;;3.78;1.60;;;21.30;32.30;;;;;;4901658;28;46208;-38
2023/12/10 13:20:23;;;;;;;6.55;1.80;;;21.30;32.30;;;;;;4893832;28;45441;-39
2023/12/10 13:22:49;;;;;;;5.10;1.85;;;21.30;32.30;;;;;;4897010;28;45867;-39
2023/12/10 13:25:15;;;;;;;4.30;1.75;;;21.30;32.30;;;;;;4885736;28;45608;-38
2023/12/10 13:27:41;;;;;;;4.40;1.63;;;21.30;32.30;;;;;;4887714;28;46110;-38
2023/12/10 13:30:10;;;;;;;3.33;1.60;;;21.30;32.30;;;;;;4885039;28;45235;-39
2023/12/10 13:32:36;;;;;;;5.53;1.90;;;21.30;32.30;;;;;;4844775;28;45269;-39
2023/12/10 13:35:02;;;;;;;6.93;3.20;;;21.30;32.30;;;;;;4905033;28;45274;-39
2023/12/10 13:37:28;;;;;;;8.95;4.43;;;21.30;32.30;;;;;;4861414;28;45674;-40
2023/12/10 13:39:53;;;;;;;8.67;5.03;;;21.30;32.40;;;;;;4899618;28;45340;-41
2023/12/10 13:42:19;;;;;;;8.90;5.10;;;21.30;32.40;;;;;;4892577;28;46018;-42
2023/12/10 13:44:45;;;;;;;6.88;4.45;;;21.30;32.50;;;;;;4903334;28;45613;-40
2023/12/10 13:47:12;;;;;;;7.57;4.50;;;21.30;32.50;;;;;;4864625;28;45418;-39
2023/12/10 13:49:39;;;;;;;8.48;4.32;;;21.30;32.60;;;;;;4882988;28;45298;-39
2023/12/10 13:52:04;;;;;;;7.95;4.03;;;21.30;32.60;;;;;;4896152;28;47195;-39
2023/12/10 13:54:30;;;;;;;7.22;4.03;;;21.30;32.70;;;;;;4901104;28;45417;-39
2023/12/10 13:56:56;;;;;;;8.27;4.03;;;21.30;32.70;;;;;;4895270;28;45452;-41
2023/12/10 13:59:22;;;;;;;6.37;3.70;;;21.30;32.80;;;;;;4889367;28;44730;-39
2023/12/10 14:01:47;;;;;;;6.07;3.42;;;21.30;32.80;;;;;;4894729;28;46170;-40
2023/12/10 14:04:13;;;;;;;6.80;3.83;;;21.30;32.80;;;;;;4899498;28;46577;-39
2023/12/10 14:06:39;;;;;;;5.78;3.38;;;21.40;33.50;;;;;;4866193;28;47383;-38
2023/12/10 14:09:06;;;;;;;6.13;3.30;;;21.40;32.90;;;;;;4893940;28;46226;-39
2023/12/10 14:11:32;;;;;;;6.93;3.47;;;21.40;32.90;;;;;;4901117;28;45749;-39
2023/12/10 14:13:58;;;;;;;6.30;3.17;;;21.40;33.00;;;;;;4900443;28;46105;-39
2023/12/10 14:16:26;;;;;;;5.70;2.95;;;21.40;33.00;;;;;;4889917;28;46421;-39
2023/12/10 14:18:52;;;;;;;7.18;3.08;;;21.40;33.00;;;;;;4899601;28;45353;-40
2023/12/10 14:21:18;;;;;;;8.02;2.83;;;21.50;33.10;;;;;;4899086;28;45321;-39
2023/12/10 14:23:43;;;;;;;6.23;2.90;;;21.50;33.10;;;;;;4901449;28;44967;-38
2023/12/10 14:26:09;;;;;;;5.20;2.40;;;21.50;33.10;;;;;;4895558;28;46116;-39
2023/12/10 14:28:35;;;;;;;5.43;2.70;;;21.50;33.10;;;;;;4881600;28;45437;-38
2023/12/10 14:31:00;;;;;;;6.22;2.60;;;21.60;33.30;;;;;;4864004;28;45834;-39
2023/12/10 14:33:26;;;;;;;5.90;2.63;;;21.60;33.20;;;;;;4885905;28;45428;-41
2023/12/10 14:35:52;;;;;;;6.85;2.50;;;21.60;33.20;;;;;;4892156;28;45413;-39
2023/12/10 14:38:17;;;;;;;6.13;2.57;;;21.60;33.30;;;;;;4884602;28;45269;-38
2023/12/10 14:40:45;;;;;;;7.03;2.90;;;21.60;33.20;;;;;;4892675;28;45409;-38
2023/12/10 14:43:11;;;;;;;6.10;2.50;;;21.70;33.30;;;;;;4905429;28;45791;-39
2023/12/10 14:45:37;;;;;;;6.43;2.25;;;21.70;33.30;;;;;;4889174;28;45332;-38
2023/12/10 14:48:03;;;;;;;5.43;2.43;;;21.70;33.30;;;;;;4887043;28;45313;-39
2023/12/10 14:50:28;;;;;;;5.55;2.28;;;21.70;33.30;;;;;;4890925;28;45669;-38
2023/12/10 14:52:54;;;;;;;5.75;2.13;;;21.70;33.30;;;;;;4902814;28;45054;-38
2023/12/10 14:55:20;;;;;;;5.80;2.38;;;21.80;33.40;;;;;;4893141;28;45303;-39
2023/12/10 14:57:45;;;;;;;4.55;1.90;;;21.80;33.30;;;;;;4899680;28;45298;-39
2023/12/10 15:00:11;;;;;;;6.45;2.30;;;21.90;33.40;;;;;;4894839;28;45253;-41
2023/12/10 15:02:37;;;;;;;5.55;2.25;;;21.80;33.30;;;;;;4897197;28;45692;-40
2023/12/10 15:05:07;;;;;;;7.45;2.30;;;21.90;33.30;;;;;;4899933;28;46384;-38
2023/12/10 15:07:33;;;;;;;6.68;2.38;;;21.90;33.30;;;;;;4866008;28;45767;-38
2023/12/10 15:09:59;;;;;;;4.93;2.13;;;22.00;33.30;;;;;;4886614;28;46519;-39
2023/12/10 15:12:24;;;;;;;5.68;2.10;;;22.00;33.50;;;;;;4883127;28;45892;-39
2023/12/10 15:14:50;;;;;;;6.80;2.47;;;22.00;33.40;;;;;;4901749;28;45308;-39
2023/12/10 15:17:16;;;;;;;5.70;2.10;;;22.10;33.30;;;;;;4868086;28;45809;-39
2023/12/10 15:19:42;;;;;;;6.30;2.23;;;22.10;33.30;;;;;;4899778;28;45764;-38
2023/12/10 15:22:09;;;;;;;4.30;1.95;;;22.20;33.40;;;;;;4892135;28;46246;-39
2023/12/10 15:24:35;;;;;;;6.47;2.23;;;22.20;33.30;;;;;;4902831;28;44978;-38
2023/12/10 15:27:00;;;;;;;5.65;2.30;;;22.20;33.30;;;;;;4891384;28;45369;-38
2023/12/10 15:29:26;;;;;;;5.20;2.05;;;22.30;33.30;;;;;;4889813;28;45289;-39
2023/12/10 15:31:52;;;;;;;4.20;1.80;;;22.30;33.30;;;;;;4883423;28;45811;-39
2023/12/10 15:34:17;;;;;;;5.00;1.92;;;22.30;33.20;;;;;;4886032;28;45423;-38
2023/12/10 15:36:43;;;;;;;7.88;2.35;;;22.40;33.30;;;;;;4879027;28;45733;-41
2023/12/10 15:39:09;;;;;;;5.53;1.95;;;22.40;33.20;;;;;;4884795;28;45484;-38
2023/12/10 15:41:34;;;;;;;5.80;1.90;;;22.40;33.20;;;;;;4899801;28;45828;-39
2023/12/10 15:44:00;;;;;;;5.23;2.00;;;22.50;33.20;;;;;;4889905;28;46736;-38
2023/12/10 15:46:26;;;;;;;6.90;2.13;;;22.50;33.10;;;;;;4880638;28;45183;-39
2023/12/10 15:48:52;;;;;;;4.60;1.85;;;22.50;33.10;;;;;;4904232;28;45446;-39
2023/12/10 15:51:18;;;;;;;5.70;2.10;;;22.50;33.00;;;;;;4897743;28;45368;-39
2023/12/10 15:53:43;;;;;;;4.43;2.15;;;22.60;33.10;;;;;;4888830;28;45231;-39
2023/12/10 15:56:09;;;;;;;5.80;2.10;;;22.60;33.00;;;;;;4879767;28;45474;-39
2023/12/10 15:58:35;;;;;;;4.47;2.00;;;22.60;33.00;;;;;;4906815;28;45377;-39
2023/12/10 16:01:01;;;;;;;5.10;2.23;;;22.60;33.00;;;;;;4871657;28;45364;-38
2023/12/10 16:03:27;;;;;;;5.25;2.35;;;22.70;32.90;;;;;;4904069;28;45846;-39
2023/12/10 16:05:53;;;;;;;4.40;2.20;;;22.70;32.90;;;;;;4897641;28;45247;-39
2023/12/10 16:08:18;;;;;;;5.77;2.50;;;22.80;32.90;;;;;;4906058;28;45727;-39
2023/12/10 16:10:44;;;;;;;6.00;2.40;;;22.80;32.80;;;;;;4885460;28;45670;-38
2023/12/10 16:13:10;;;;;;;6.77;2.43;;;22.80;32.90;;;;;;4907344;28;45326;-39
2023/12/10 16:15:35;;;;;;;4.75;2.00;;;22.80;32.90;;;;;;4862778;28;45875;-39
2023/12/10 16:18:01;;;;;;;5.90;2.35;;;22.90;32.80;;;;;;4902103;28;45253;-39
2023/12/10 16:20:27;;;;;;;5.88;2.25;;;23.00;32.80;;;;;;4913790;23;46203;-68
2023/12/10 16:22:52;;;;;;;7.80;2.50;;;23.00;32.70;;;;;;4887410;28;46823;-67
2023/12/10 16:25:18;;;;;;;5.30;2.20;;;23.00;32.70;;;;;;4901886;28;45448;-68
2023/12/10 16:27:44;;;;;;;6.72;2.50;;;23.00;32.60;;;;;;4919454;28;45320;-67
2023/12/10 16:30:10;;;;;;;6.38;2.35;;;23.10;32.60;;;;;;4898557;28;45529;-68
2023/12/10 16:32:37;;;;;;;4.60;2.20;;;23.10;32.60;;;;;;4907252;28;46156;-67
2023/12/10 16:35:07;;;;;;;5.63;2.42;;;23.10;32.50;;;;;;4899264;28;45036;-68
2023/12/10 16:37:34;;;;;;;4.63;2.10;;;23.20;32.50;;;;;;4900545;28;44776;-67
2023/12/10 16:40:00;;;;;;;6.85;2.50;;;23.20;32.50;;;;;;4905730;28;45484;-67
2023/12/10 16:42:27;;;;;;;5.50;2.43;;;23.20;32.80;;;;;;4877942;28;45187;-67
2023/12/10 16:44:54;;;;;;;4.15;2.20;;;23.30;32.50;;;;;;4878752;28;45225;-68